San Bernardino, CA (92413)

4:52 PM PDT on July 31, 2015 (GMT -0700)
North San Bernardino | | Change Station
CLOSE
Current Station
Personal Weather Station
Location: San Bernardino, CA
Elevation: 1362 ft
Nearby Weather Stations

Elev 1362 ft 34.16 °N, 117.27 °W | Updated 14 seconds ago

Partly Cloudy
Partly Cloudy
93.9 °F
Feels Like 94 °F
N
0.2
Wind Variable Wind from South
Gusts 2.5 mph

Today
High -- | Low -- °F
--% Chance of Precip.
Yesterday
High -- | Low -- °F
Precip. -- in
5:59 AM 7:51 PM
Full, 100% visible
Pressure 29.96 in
Visibility 7.0 miles
Clouds Few 10000 ft
Mostly Cloudy 20000 ft
Heat Index 94 °F
Dew Point 61 °F
Humidity 34%
Rainfall 0.00 in
Snow Depth Not available.
UV 2.0 out of 12
Pollen 3.10 out of 12
Air Quality Not available.
Flu Activity Not available.
METAR KSBD 312252Z 24005KT 7SM FEW100 BKN200 34/14 A2996

More Conditions Fewer Conditions

Pressure 29.96 in
Visibility 7.0 miles
Clouds Few 10000 ft
Mostly Cloudy 20000 ft
Heat Index 94 °F
Dew Point 61 °F
Humidity 34%
Rainfall 0.00 in
Snow Depth Not available.
UV 2.0 out of 12
Pollen 3.10 out of 12
Air Quality Not available.
Flu Activity Not available.
METAR KSBD 312252Z 24005KT 7SM FEW100 BKN200 34/14 A2996

More Conditions Fewer Conditions

10-Day Weather Forecast

×

Almanac

Astronomy

Jul. 31, 2015 Rise Set
Actual Time
Civil Twilight
Nautical Twilight
Astronomical Twilight
Moon
Length of Visible Light
Length of Day
Tomorrow will be .
, % of the Moon is Illuminated

Today's Extremes

State Highs State Lows

Community

WunderPhotos

Upload Photos

1,842,771 photos uploaded!

WunderBlogs® & News

Nearby

Air Quality

  Air Quality AQ Index Pollutant
Not available.

Snow Depth

Station Depth Elevation

Earthquake Activity

City Distance Mag. Time & Date
Minimum magnitude displayed is 2.5.

Coastal Water Temperatures

Place Temperature

Stations

Nearby Weather Stations

Station Location Temp. Windchill Dew Point Humidity Wind Precip. Elev Updated Type